sensor_id;sensor_type;location;lat;lon;timestamp;temperature;humidity
71212;DHT22;58957;37.742;-0.742;2023-04-24T00:02:12;20.90;95.30
71212;DHT22;58957;37.742;-0.742;2023-04-24T00:04:39;20.90;94.80
71212;DHT22;58957;37.742;-0.742;2023-04-24T00:07:08;20.90;95.20
71212;DHT22;58957;37.742;-0.742;2023-04-24T00:09:35;21.00;96.30
71212;DHT22;58957;37.742;-0.742;2023-04-24T00:12:02;20.90;97.60
71212;DHT22;58957;37.742;-0.742;2023-04-24T00:14:30;20.90;97.90
71212;DHT22;58957;37.742;-0.742;2023-04-24T00:16:57;20.90;98.60
71212;DHT22;58957;37.742;-0.742;2023-04-24T00:19:25;21.00;96.50
71212;DHT22;58957;37.742;-0.742;2023-04-24T00:21:52;21.10;96.10
71212;DHT22;58957;37.742;-0.742;2023-04-24T00:24:21;21.20;97.50
71212;DHT22;58957;37.742;-0.742;2023-04-24T00:26:48;21.20;97.10
71212;DHT22;58957;37.742;-0.742;2023-04-24T00:29:15;21.30;96.70
71212;DHT22;58957;37.742;-0.742;2023-04-24T00:31:42;21.30;96.70
71212;DHT22;58957;37.742;-0.742;2023-04-24T00:34:10;21.30;97.00
71212;DHT22;58957;37.742;-0.742;2023-04-24T00:36:37;21.30;97.10
71212;DHT22;58957;37.742;-0.742;2023-04-24T00:39:04;21.20;98.10
71212;DHT22;58957;37.742;-0.742;2023-04-24T00:41:36;21.10;98.90
71212;DHT22;58957;37.742;-0.742;2023-04-24T00:44:03;21.10;99.60
71212;DHT22;58957;37.742;-0.742;2023-04-24T00:46:30;21.10;99.90
71212;DHT22;58957;37.742;-0.742;2023-04-24T00:48:59;21.10;98.10
71212;DHT22;58957;37.742;-0.742;2023-04-24T00:51:26;21.20;97.60
71212;DHT22;58957;37.742;-0.742;2023-04-24T00:53:56;21.10;97.60
71212;DHT22;58957;37.742;-0.742;2023-04-24T00:56:24;21.10;99.20
71212;DHT22;58957;37.742;-0.742;2023-04-24T00:58:52;21.00;99.40
71212;DHT22;58957;37.742;-0.742;2023-04-24T01:01:22;21.00;99.90
71212;DHT22;58957;37.742;-0.742;2023-04-24T01:03:51;20.90;99.90
71212;DHT22;58957;37.742;-0.742;2023-04-24T01:06:19;20.90;99.30
71212;DHT22;58957;37.742;-0.742;2023-04-24T01:08:47;20.80;98.60
71212;DHT22;58957;37.742;-0.742;2023-04-24T01:11:14;20.70;97.70
71212;DHT22;58957;37.742;-0.742;2023-04-24T01:13:41;20.80;98.10
71212;DHT22;58957;37.742;-0.742;2023-04-24T01:16:10;20.70;97.90
71212;DHT22;58957;37.742;-0.742;2023-04-24T01:18:38;20.70;97.10
71212;DHT22;58957;37.742;-0.742;2023-04-24T01:21:05;20.70;96.50
71212;DHT22;58957;37.742;-0.742;2023-04-24T01:23:36;20.70;96.90
71212;DHT22;58957;37.742;-0.742;2023-04-24T01:26:04;20.60;97.40
71212;DHT22;58957;37.742;-0.742;2023-04-24T01:28:31;20.50;96.20
71212;DHT22;58957;37.742;-0.742;2023-04-24T01:30:58;20.60;95.40
71212;DHT22;58957;37.742;-0.742;2023-04-24T01:33:26;20.50;95.60
71212;DHT22;58957;37.742;-0.742;2023-04-24T01:35:54;20.50;95.90
71212;DHT22;58957;37.742;-0.742;2023-04-24T01:38:21;20.50;95.60
71212;DHT22;58957;37.742;-0.742;2023-04-24T01:40:50;20.40;94.70
71212;DHT22;58957;37.742;-0.742;2023-04-24T01:43:18;20.40;94.50
71212;DHT22;58957;37.742;-0.742;2023-04-24T01:45:45;20.40;94.80
71212;DHT22;58957;37.742;-0.742;2023-04-24T01:48:13;20.30;94.10
71212;DHT22;58957;37.742;-0.742;2023-04-24T01:50:41;19.90;94.60
71212;DHT22;58957;37.742;-0.742;2023-04-24T01:53:08;19.80;93.50
71212;DHT22;58957;37.742;-0.742;2023-04-24T01:55:35;19.60;93.30
71212;DHT22;58957;37.742;-0.742;2023-04-24T01:58:04;19.70;92.70
71212;DHT22;58957;37.742;-0.742;2023-04-24T02:00:31;19.90;93.00
71212;DHT22;58957;37.742;-0.742;2023-04-24T02:02:59;19.90;93.60
71212;DHT22;58957;37.742;-0.742;2023-04-24T02:05:29;19.80;92.90
71212;DHT22;58957;37.742;-0.742;2023-04-24T06:46:40;19.70;99.90
71212;DHT22;58957;37.742;-0.742;2023-04-24T06:49:07;20.20;99.90
71212;DHT22;58957;37.742;-0.742;2023-04-24T06:51:36;20.00;99.90
71212;DHT22;58957;37.742;-0.742;2023-04-24T06:54:03;20.00;99.90
71212;DHT22;58957;37.742;-0.742;2023-04-24T06:56:31;20.00;99.90
71212;DHT22;58957;37.742;-0.742;2023-04-24T06:58:59;19.90;99.90
71212;DHT22;58957;37.742;-0.742;2023-04-24T07:01:27;20.00;99.90
71212;DHT22;58957;37.742;-0.742;2023-04-24T07:03:55;20.10;99.90
71212;DHT22;58957;37.742;-0.742;2023-04-24T11:47:20;26.20;92.90
71212;DHT22;58957;37.742;-0.742;2023-04-24T11:49:50;26.40;93.30
71212;DHT22;58957;37.742;-0.742;2023-04-24T11:52:17;26.50;93.00
71212;DHT22;58957;37.742;-0.742;2023-04-24T11:54:48;26.50;92.50
71212;DHT22;58957;37.742;-0.742;2023-04-24T11:57:18;26.60;92.50
71212;DHT22;58957;37.742;-0.742;2023-04-24T11:59:47;26.60;91.60
71212;DHT22;58957;37.742;-0.742;2023-04-24T12:02:23;26.70;91.80
71212;DHT22;58957;37.742;-0.742;2023-04-24T12:04:51;26.70;91.30
71212;DHT22;58957;37.742;-0.742;2023-04-24T12:07:18;26.70;90.90
71212;DHT22;58957;37.742;-0.742;2023-04-24T12:09:47;26.70;91.00
71212;DHT22;58957;37.742;-0.742;2023-04-24T12:12:16;26.70;91.00
71212;DHT22;58957;37.742;-0.742;2023-04-24T12:14:48;26.70;90.70
71212;DHT22;58957;37.742;-0.742;2023-04-24T12:17:15;26.60;90.00
71212;DHT22;58957;37.742;-0.742;2023-04-24T12:19:46;26.60;90.00
71212;DHT22;58957;37.742;-0.742;2023-04-24T12:22:15;26.50;90.20
71212;DHT22;58957;37.742;-0.742;2023-04-24T12:25:03;26.50;89.80
71212;DHT22;58957;37.742;-0.742;2023-04-24T12:27:32;26.40;89.80
71212;DHT22;58957;37.742;-0.742;2023-04-24T12:30:02;26.40;90.10
71212;DHT22;58957;37.742;-0.742;2023-04-24T12:32:29;26.40;90.30
71212;DHT22;58957;37.742;-0.742;2023-04-24T12:34:57;26.30;90.20
71212;DHT22;58957;37.742;-0.742;2023-04-24T12:37:25;26.40;90.10
71212;DHT22;58957;37.742;-0.742;2023-04-24T12:40:00;26.40;90.80
71212;DHT22;58957;37.742;-0.742;2023-04-24T12:42:28;26.50;90.30
71212;DHT22;58957;37.742;-0.742;2023-04-24T12:45:02;26.50;89.50
71212;DHT22;58957;37.742;-0.742;2023-04-24T12:47:30;26.50;89.80
71212;DHT22;58957;37.742;-0.742;2023-04-24T12:49:58;26.50;90.10
71212;DHT22;58957;37.742;-0.742;2023-04-24T12:52:26;26.60;90.40
71212;DHT22;58957;37.742;-0.742;2023-04-24T12:54:55;26.50;89.90
71212;DHT22;58957;37.742;-0.742;2023-04-24T12:57:22;26.20;90.10
71212;DHT22;58957;37.742;-0.742;2023-04-24T12:59:49;26.40;90.10
71212;DHT22;58957;37.742;-0.742;2023-04-24T13:02:17;26.30;90.80
71212;DHT22;58957;37.742;-0.742;2023-04-24T13:49:26;27.20;96.40
71212;DHT22;58957;37.742;-0.742;2023-04-24T13:51:55;27.00;90.80
71212;DHT22;58957;37.742;-0.742;2023-04-24T13:54:23;26.80;90.90
71212;DHT22;58957;37.742;-0.742;2023-04-24T13:56:51;26.70;91.00
71212;DHT22;58957;37.742;-0.742;2023-04-24T13:59:19;26.60;91.10
71212;DHT22;58957;37.742;-0.742;2023-04-24T14:01:47;26.70;91.40
71212;DHT22;58957;37.742;-0.742;2023-04-24T14:04:14;26.60;92.20
71212;DHT22;58957;37.742;-0.742;2023-04-24T14:06:43;26.60;92.10
71212;DHT22;58957;37.742;-0.742;2023-04-24T14:09:11;26.40;92.30
71212;DHT22;58957;37.742;-0.742;2023-04-24T14:11:38;26.30;92.40
71212;DHT22;58957;37.742;-0.742;2023-04-24T14:14:06;26.30;92.10
71212;DHT22;58957;37.742;-0.742;2023-04-24T14:16:33;26.20;92.30
71212;DHT22;58957;37.742;-0.742;2023-04-24T14:19:00;26.30;92.50
71212;DHT22;58957;37.742;-0.742;2023-04-24T14:21:28;26.20;92.60
71212;DHT22;58957;37.742;-0.742;2023-04-24T14:23:57;26.10;92.70
71212;DHT22;58957;37.742;-0.742;2023-04-24T14:26:24;26.00;93.10
71212;DHT22;58957;37.742;-0.742;2023-04-24T14:28:51;25.90;93.30
71212;DHT22;58957;37.742;-0.742;2023-04-24T14:31:20;25.80;93.20
71212;DHT22;58957;37.742;-0.742;2023-04-24T14:33:48;25.90;93.40
71212;DHT22;58957;37.742;-0.742;2023-04-24T14:36:15;25.80;93.40
71212;DHT22;58957;37.742;-0.742;2023-04-24T14:38:42;25.90;94.00
71212;DHT22;58957;37.742;-0.742;2023-04-24T14:41:10;25.90;93.30
71212;DHT22;58957;37.742;-0.742;2023-04-24T14:43:38;25.90;93.30
71212;DHT22;58957;37.742;-0.742;2023-04-24T14:46:05;25.80;93.70
71212;DHT22;58957;37.742;-0.742;2023-04-24T14:48:33;25.70;94.00
71212;DHT22;58957;37.742;-0.742;2023-04-24T14:51:00;25.60;94.30
71212;DHT22;58957;37.742;-0.742;2023-04-24T14:53:27;25.60;95.10
71212;DHT22;58957;37.742;-0.742;2023-04-24T14:55:54;25.50;95.50
71212;DHT22;58957;37.742;-0.742;2023-04-24T14:58:23;25.60;95.20
71212;DHT22;58957;37.742;-0.742;2023-04-24T15:00:51;25.80;94.70
71212;DHT22;58957;37.742;-0.742;2023-04-24T15:03:20;25.70;94.50
71212;DHT22;58957;37.742;-0.742;2023-04-24T15:05:48;25.70;94.70
71212;DHT22;58957;37.742;-0.742;2023-04-24T15:08:15;25.50;95.30
71212;DHT22;58957;37.742;-0.742;2023-04-24T15:10:43;25.60;95.60
71212;DHT22;58957;37.742;-0.742;2023-04-24T15:13:10;25.70;95.50
71212;DHT22;58957;37.742;-0.742;2023-04-24T15:15:39;25.80;95.20
71212;DHT22;58957;37.742;-0.742;2023-04-24T15:18:08;25.60;95.50
71212;DHT22;58957;37.742;-0.742;2023-04-24T15:20:37;25.50;96.00
71212;DHT22;58957;37.742;-0.742;2023-04-24T15:23:07;25.40;96.50
71212;DHT22;58957;37.742;-0.742;2023-04-24T15:25:35;25.40;96.10
71212;DHT22;58957;37.742;-0.742;2023-04-24T15:28:02;25.20;95.90
71212;DHT22;58957;37.742;-0.742;2023-04-24T15:30:30;25.10;96.50
71212;DHT22;58957;37.742;-0.742;2023-04-24T15:32:59;25.10;96.60
71212;DHT22;58957;37.742;-0.742;2023-04-24T15:35:26;25.30;96.60
71212;DHT22;58957;37.742;-0.742;2023-04-24T15:37:53;25.40;96.40
71212;DHT22;58957;37.742;-0.742;2023-04-24T15:40:21;25.30;96.00
71212;DHT22;58957;37.742;-0.742;2023-04-24T15:42:48;25.20;96.50
71212;DHT22;58957;37.742;-0.742;2023-04-24T15:45:15;25.10;96.70
71212;DHT22;58957;37.742;-0.742;2023-04-24T15:47:44;25.20;97.20
71212;DHT22;58957;37.742;-0.742;2023-04-24T15:50:14;25.20;97.00
71212;DHT22;58957;37.742;-0.742;2023-04-24T15:52:41;25.20;97.20
71212;DHT22;58957;37.742;-0.742;2023-04-24T15:55:10;25.10;97.40
71212;DHT22;58957;37.742;-0.742;2023-04-24T15:57:38;25.10;97.80
71212;DHT22;58957;37.742;-0.742;2023-04-24T16:00:06;25.00;98.00
71212;DHT22;58957;37.742;-0.742;2023-04-24T16:02:34;24.80;98.10
71212;DHT22;58957;37.742;-0.742;2023-04-24T16:05:01;24.80;98.50
71212;DHT22;58957;37.742;-0.742;2023-04-24T16:07:30;24.70;99.10
71212;DHT22;58957;37.742;-0.742;2023-04-24T16:09:57;24.70;99.00
71212;DHT22;58957;37.742;-0.742;2023-04-24T16:12:24;24.50;99.20
71212;DHT22;58957;37.742;-0.742;2023-04-24T16:14:53;24.50;99.80
71212;DHT22;58957;37.742;-0.742;2023-04-24T16:17:20;24.50;99.70
71212;DHT22;58957;37.742;-0.742;2023-04-24T16:19:47;24.40;99.70
71212;DHT22;58957;37.742;-0.742;2023-04-24T16:22:14;24.40;99.90
71212;DHT22;58957;37.742;-0.742;2023-04-24T16:24:43;24.20;99.90
71212;DHT22;58957;37.742;-0.742;2023-04-24T16:27:13;24.10;99.90
71212;DHT22;58957;37.742;-0.742;2023-04-24T16:29:40;23.90;99.90
71212;DHT22;58957;37.742;-0.742;2023-04-24T16:32:08;23.90;99.90
71212;DHT22;58957;37.742;-0.742;2023-04-24T16:34:36;23.90;99.90
71212;DHT22;58957;37.742;-0.742;2023-04-24T16:37:03;23.80;99.90
71212;DHT22;58957;37.742;-0.742;2023-04-24T16:39:30;23.80;99.90
71212;DHT22;58957;37.742;-0.742;2023-04-24T16:41:59;23.70;99.90
71212;DHT22;58957;37.742;-0.742;2023-04-24T16:44:26;23.50;99.90
71212;DHT22;58957;37.742;-0.742;2023-04-24T16:46:54;23.50;99.90
71212;DHT22;58957;37.742;-0.742;2023-04-24T16:49:21;23.50;99.90
71212;DHT22;58957;37.742;-0.742;2023-04-24T16:51:48;23.30;99.90
71212;DHT22;58957;37.742;-0.742;2023-04-24T16:54:15;23.30;99.90
71212;DHT22;58957;37.742;-0.742;2023-04-24T16:56:43;23.30;99.90
71212;DHT22;58957;37.742;-0.742;2023-04-24T16:59:11;23.30;99.90
71212;DHT22;58957;37.742;-0.742;2023-04-24T17:01:39;23.20;99.90
71212;DHT22;58957;37.742;-0.742;2023-04-24T17:04:06;23.20;99.90
71212;DHT22;58957;37.742;-0.742;2023-04-24T17:06:33;23.20;99.90
71212;DHT22;58957;37.742;-0.742;2023-04-24T17:09:00;23.10;99.90
71212;DHT22;58957;37.742;-0.742;2023-04-24T17:11:28;23.00;99.90
71212;DHT22;58957;37.742;-0.742;2023-04-24T17:13:55;22.90;99.90
71212;DHT22;58957;37.742;-0.742;2023-04-24T17:16:25;23.00;99.90
71212;DHT22;58957;37.742;-0.742;2023-04-24T17:18:53;22.90;99.90
71212;DHT22;58957;37.742;-0.742;2023-04-24T17:21:20;22.90;99.90
71212;DHT22;58957;37.742;-0.742;2023-04-24T17:23:47;22.90;99.90
71212;DHT22;58957;37.742;-0.742;2023-04-24T17:26:15;22.90;99.90
71212;DHT22;58957;37.742;-0.742;2023-04-24T17:28:42;22.90;99.90
71212;DHT22;58957;37.742;-0.742;2023-04-24T17:31:10;22.80;99.90
71212;DHT22;58957;37.742;-0.742;2023-04-24T17:33:38;22.80;99.90
71212;DHT22;58957;37.742;-0.742;2023-04-24T17:36:06;22.70;99.90
71212;DHT22;58957;37.742;-0.742;2023-04-24T17:38:33;22.70;99.90
71212;DHT22;58957;37.742;-0.742;2023-04-24T17:41:00;22.80;99.90
71212;DHT22;58957;37.742;-0.742;2023-04-24T17:43:28;22.80;99.90
71212;DHT22;58957;37.742;-0.742;2023-04-24T17:45:55;22.70;99.90
71212;DHT22;58957;37.742;-0.742;2023-04-24T17:48:24;22.70;99.90
71212;DHT22;58957;37.742;-0.742;2023-04-24T17:50:53;22.60;99.90
71212;DHT22;58957;37.742;-0.742;2023-04-24T17:53:20;22.50;99.90
71212;DHT22;58957;37.742;-0.742;2023-04-24T17:55:48;22.40;99.90
71212;DHT22;58957;37.742;-0.742;2023-04-24T17:58:15;22.50;99.90
71212;DHT22;58957;37.742;-0.742;2023-04-24T18:00:43;22.40;99.90
71212;DHT22;58957;37.742;-0.742;2023-04-24T18:03:10;22.30;99.90
71212;DHT22;58957;37.742;-0.742;2023-04-24T18:05:38;22.20;99.90
71212;DHT22;58957;37.742;-0.742;2023-04-24T18:08:06;22.30;99.90
71212;DHT22;58957;37.742;-0.742;2023-04-24T18:10:34;22.30;99.90
71212;DHT22;58957;37.742;-0.742;2023-04-24T18:13:02;22.20;99.90
71212;DHT22;58957;37.742;-0.742;2023-04-24T18:15:29;22.20;99.90
71212;DHT22;58957;37.742;-0.742;2023-04-24T18:17:57;22.10;99.90
71212;DHT22;58957;37.742;-0.742;2023-04-24T18:20:24;22.10;99.90
71212;DHT22;58957;37.742;-0.742;2023-04-24T18:22:52;22.10;99.90
71212;DHT22;58957;37.742;-0.742;2023-04-24T18:25:21;21.90;99.90
71212;DHT22;58957;37.742;-0.742;2023-04-24T18:27:51;21.90;99.90
71212;DHT22;58957;37.742;-0.742;2023-04-24T18:30:21;21.90;99.90
71212;DHT22;58957;37.742;-0.742;2023-04-24T18:32:49;21.80;99.90
71212;DHT22;58957;37.742;-0.742;2023-04-24T18:35:17;21.70;99.90
71212;DHT22;58957;37.742;-0.742;2023-04-24T18:37:45;21.60;99.90
71212;DHT22;58957;37.742;-0.742;2023-04-24T18:40:12;21.60;99.90
71212;DHT22;58957;37.742;-0.742;2023-04-24T18:42:41;21.60;99.90
71212;DHT22;58957;37.742;-0.742;2023-04-24T18:45:09;21.50;99.90
71212;DHT22;58957;37.742;-0.742;2023-04-24T18:47:37;21.40;99.90
71212;DHT22;58957;37.742;-0.742;2023-04-24T18:50:05;21.40;99.90
71212;DHT22;58957;37.742;-0.742;2023-04-24T18:52:32;21.30;99.90
71212;DHT22;58957;37.742;-0.742;2023-04-24T18:54:59;21.30;99.90
71212;DHT22;58957;37.742;-0.742;2023-04-24T18:57:28;21.30;99.90
71212;DHT22;58957;37.742;-0.742;2023-04-24T18:59:56;21.30;99.90
71212;DHT22;58957;37.742;-0.742;2023-04-24T19:02:24;21.20;99.90
71212;DHT22;58957;37.742;-0.742;2023-04-24T19:04:51;21.20;99.90
71212;DHT22;58957;37.742;-0.742;2023-04-24T19:07:18;21.30;99.90
71212;DHT22;58957;37.742;-0.742;2023-04-24T19:09:46;21.20;99.90
71212;DHT22;58957;37.742;-0.742;2023-04-24T19:12:13;21.20;99.90
71212;DHT22;58957;37.742;-0.742;2023-04-24T19:14:40;21.30;99.90
71212;DHT22;58957;37.742;-0.742;2023-04-24T19:17:08;21.30;99.90
71212;DHT22;58957;37.742;-0.742;2023-04-24T19:19:36;21.30;99.90
71212;DHT22;58957;37.742;-0.742;2023-04-24T19:22:03;21.20;99.90
71212;DHT22;58957;37.742;-0.742;2023-04-24T19:24:32;21.10;99.90
71212;DHT22;58957;37.742;-0.742;2023-04-24T19:27:00;21.00;99.90
71212;DHT22;58957;37.742;-0.742;2023-04-24T19:29:27;21.00;99.90
71212;DHT22;58957;37.742;-0.742;2023-04-24T19:31:54;21.10;99.90
71212;DHT22;58957;37.742;-0.742;2023-04-24T19:34:24;21.00;99.90
71212;DHT22;58957;37.742;-0.742;2023-04-24T19:36:52;21.00;99.90
71212;DHT22;58957;37.742;-0.742;2023-04-24T19:39:19;21.00;99.90
71212;DHT22;58957;37.742;-0.742;2023-04-24T19:41:46;21.10;99.90
71212;DHT22;58957;37.742;-0.742;2023-04-24T19:44:13;21.10;99.90
71212;DHT22;58957;37.742;-0.742;2023-04-24T19:46:41;21.10;99.90
71212;DHT22;58957;37.742;-0.742;2023-04-24T19:49:11;21.10;99.90
71212;DHT22;58957;37.742;-0.742;2023-04-24T19:51:41;21.00;99.90
71212;DHT22;58957;37.742;-0.742;2023-04-24T19:54:08;21.00;99.90
71212;DHT22;58957;37.742;-0.742;2023-04-24T19:56:35;21.00;99.90
71212;DHT22;58957;37.742;-0.742;2023-04-24T19:59:02;21.00;99.90
71212;DHT22;58957;37.742;-0.742;2023-04-24T20:01:29;21.00;99.90
71212;DHT22;58957;37.742;-0.742;2023-04-24T20:03:57;21.00;99.90
71212;DHT22;58957;37.742;-0.742;2023-04-24T20:06:24;21.00;99.90
71212;DHT22;58957;37.742;-0.742;2023-04-24T20:08:53;21.00;99.90
71212;DHT22;58957;37.742;-0.742;2023-04-24T20:11:20;21.00;99.90
71212;DHT22;58957;37.742;-0.742;2023-04-24T20:13:47;21.00;99.90
71212;DHT22;58957;37.742;-0.742;2023-04-24T20:16:15;20.90;99.90
71212;DHT22;58957;37.742;-0.742;2023-04-24T20:18:42;20.90;99.90
71212;DHT22;58957;37.742;-0.742;2023-04-24T20:21:09;20.90;99.90
71212;DHT22;58957;37.742;-0.742;2023-04-24T20:23:36;21.00;99.90
71212;DHT22;58957;37.742;-0.742;2023-04-24T20:26:05;20.80;99.90
71212;DHT22;58957;37.742;-0.742;2023-04-24T20:28:33;20.80;99.90
71212;DHT22;58957;37.742;-0.742;2023-04-24T20:31:00;20.80;99.90
71212;DHT22;58957;37.742;-0.742;2023-04-24T20:33:27;20.80;99.90
71212;DHT22;58957;37.742;-0.742;2023-04-24T20:35:55;20.80;99.90
71212;DHT22;58957;37.742;-0.742;2023-04-24T20:38:22;20.80;99.90
71212;DHT22;58957;37.742;-0.742;2023-04-24T20:40:50;20.80;99.90
71212;DHT22;58957;37.742;-0.742;2023-04-24T20:43:18;20.70;99.90
71212;DHT22;58957;37.742;-0.742;2023-04-24T20:45:46;20.60;99.90
71212;DHT22;58957;37.742;-0.742;2023-04-24T20:48:13;20.60;99.90
71212;DHT22;58957;37.742;-0.742;2023-04-24T20:50:40;20.60;99.90
71212;DHT22;58957;37.742;-0.742;2023-04-24T20:53:07;20.70;99.90
71212;DHT22;58957;37.742;-0.742;2023-04-24T20:55:35;20.70;99.90
71212;DHT22;58957;37.742;-0.742;2023-04-24T20:58:02;20.70;99.90
71212;DHT22;58957;37.742;-0.742;2023-04-24T21:00:31;20.60;99.90
71212;DHT22;58957;37.742;-0.742;2023-04-24T21:02:58;20.60;99.90
71212;DHT22;58957;37.742;-0.742;2023-04-24T21:05:25;20.50;99.90
71212;DHT22;58957;37.742;-0.742;2023-04-24T21:07:53;20.40;99.90
71212;DHT22;58957;37.742;-0.742;2023-04-24T21:10:21;20.50;99.90
71212;DHT22;58957;37.742;-0.742;2023-04-24T21:12:48;20.30;99.90
71212;DHT22;58957;37.742;-0.742;2023-04-24T21:15:16;20.40;99.90
71212;DHT22;58957;37.742;-0.742;2023-04-24T21:17:45;20.50;99.90
71212;DHT22;58957;37.742;-0.742;2023-04-24T21:20:12;20.50;99.90
71212;DHT22;58957;37.742;-0.742;2023-04-24T21:22:39;20.60;99.90
71212;DHT22;58957;37.742;-0.742;2023-04-24T21:25:07;20.60;99.90
71212;DHT22;58957;37.742;-0.742;2023-04-24T21:27:35;20.60;99.90
71212;DHT22;58957;37.742;-0.742;2023-04-24T21:30:05;20.60;99.90
71212;DHT22;58957;37.742;-0.742;2023-04-24T21:32:32;20.60;99.90
71212;DHT22;58957;37.742;-0.742;2023-04-24T21:35:01;20.60;99.90
71212;DHT22;58957;37.742;-0.742;2023-04-24T21:37:28;20.60;99.90
71212;DHT22;58957;37.742;-0.742;2023-04-24T21:39:57;20.60;99.90
71212;DHT22;58957;37.742;-0.742;2023-04-24T21:42:25;20.60;99.90
71212;DHT22;58957;37.742;-0.742;2023-04-24T21:44:52;20.60;99.90
71212;DHT22;58957;37.742;-0.742;2023-04-24T21:47:19;20.50;99.90
71212;DHT22;58957;37.742;-0.742;2023-04-24T21:49:46;20.50;99.90
71212;DHT22;58957;37.742;-0.742;2023-04-24T21:52:14;20.50;99.90
71212;DHT22;58957;37.742;-0.742;2023-04-24T21:54:41;20.50;99.90
71212;DHT22;58957;37.742;-0.742;2023-04-24T21:57:09;20.60;99.90
71212;DHT22;58957;37.742;-0.742;2023-04-24T21:59:36;20.60;99.90
71212;DHT22;58957;37.742;-0.742;2023-04-24T22:02:03;20.60;99.90
71212;DHT22;58957;37.742;-0.742;2023-04-24T22:04:31;20.70;99.90
71212;DHT22;58957;37.742;-0.742;2023-04-24T22:06:58;20.70;99.90
71212;DHT22;58957;37.742;-0.742;2023-04-24T22:09:27;20.70;99.90
71212;DHT22;58957;37.742;-0.742;2023-04-24T22:11:54;20.70;99.90
71212;DHT22;58957;37.742;-0.742;2023-04-24T22:14:21;20.70;99.90
71212;DHT22;58957;37.742;-0.742;2023-04-24T22:16:49;20.70;99.90
71212;DHT22;58957;37.742;-0.742;2023-04-24T22:19:16;20.70;99.90
71212;DHT22;58957;37.742;-0.742;2023-04-24T22:21:43;20.70;99.90
71212;DHT22;58957;37.742;-0.742;2023-04-24T22:24:11;20.70;99.90
71212;DHT22;58957;37.742;-0.742;2023-04-24T22:26:40;20.70;99.90
71212;DHT22;58957;37.742;-0.742;2023-04-24T22:29:07;20.70;99.90
71212;DHT22;58957;37.742;-0.742;2023-04-24T22:31:35;20.70;99.90
71212;DHT22;58957;37.742;-0.742;2023-04-24T22:34:02;20.70;99.90
71212;DHT22;58957;37.742;-0.742;2023-04-24T22:36:29;20.70;99.90
71212;DHT22;58957;37.742;-0.742;2023-04-24T22:38:56;20.70;99.90
71212;DHT22;58957;37.742;-0.742;2023-04-24T22:41:23;20.70;99.90
71212;DHT22;58957;37.742;-0.742;2023-04-24T22:43:52;20.70;99.90
71212;DHT22;58957;37.742;-0.742;2023-04-24T22:46:20;20.70;99.90
71212;DHT22;58957;37.742;-0.742;2023-04-24T22:48:49;20.70;99.90
71212;DHT22;58957;37.742;-0.742;2023-04-24T22:51:16;20.70;99.90
71212;DHT22;58957;37.742;-0.742;2023-04-24T22:53:43;20.70;99.90
71212;DHT22;58957;37.742;-0.742;2023-04-24T22:56:11;20.70;99.90
71212;DHT22;58957;37.742;-0.742;2023-04-24T22:58:38;20.70;99.90
71212;DHT22;58957;37.742;-0.742;2023-04-24T23:01:07;20.70;99.90
71212;DHT22;58957;37.742;-0.742;2023-04-24T23:03:34;20.60;99.90
71212;DHT22;58957;37.742;-0.742;2023-04-24T23:06:01;20.60;99.90
71212;DHT22;58957;37.742;-0.742;2023-04-24T23:08:28;20.60;99.90
71212;DHT22;58957;37.742;-0.742;2023-04-24T23:10:56;20.60;99.90
71212;DHT22;58957;37.742;-0.742;2023-04-24T23:13:24;20.60;99.90
71212;DHT22;58957;37.742;-0.742;2023-04-24T23:15:51;20.60;99.90
71212;DHT22;58957;37.742;-0.742;2023-04-24T23:18:20;20.60;99.90
71212;DHT22;58957;37.742;-0.742;2023-04-24T23:20:47;20.50;99.90
71212;DHT22;58957;37.742;-0.742;2023-04-24T23:23:14;20.50;99.90
71212;DHT22;58957;37.742;-0.742;2023-04-24T23:25:42;20.50;99.90
71212;DHT22;58957;37.742;-0.742;2023-04-24T23:28:09;20.50;99.90
71212;DHT22;58957;37.742;-0.742;2023-04-24T23:30:36;20.50;99.90
71212;DHT22;58957;37.742;-0.742;2023-04-24T23:33:03;20.50;99.90
71212;DHT22;58957;37.742;-0.742;2023-04-24T23:35:32;20.50;99.90
71212;DHT22;58957;37.742;-0.742;2023-04-24T23:37:59;20.40;99.90
71212;DHT22;58957;37.742;-0.742;2023-04-24T23:40:26;20.50;99.90
71212;DHT22;58957;37.742;-0.742;2023-04-24T23:42:54;20.50;99.90
71212;DHT22;58957;37.742;-0.742;2023-04-24T23:45:21;20.50;99.90
71212;DHT22;58957;37.742;-0.742;2023-04-24T23:47:48;20.50;99.90
71212;DHT22;58957;37.742;-0.742;2023-04-24T23:50:15;20.50;99.90
71212;DHT22;58957;37.742;-0.742;2023-04-24T23:52:44;20.50;99.90
71212;DHT22;58957;37.742;-0.742;2023-04-24T23:55:11;20.50;99.90
71212;DHT22;58957;37.742;-0.742;2023-04-24T23:57:38;20.40;99.90
